Time;durP1;ratioP1;P1;durP2;ratioP2;P2;SDS_P1;SDS_P2;PMS_P1;PMS_P2;Temp;Humidity;BMP_temperature;BMP_pressure;BME280_temperature;BME280_humidity;BME280_pressure;Samples;Min_cycle;Max_cycle;Signal;HPM_P1;HPM_P2
2022/07/06 00:00:48;;;;;;;1.25;0.50;;;14.90;74.30;;;;;;2079348;28;20124;-95
2022/07/06 00:02:10;;;;;;;0.88;0.47;;;14.90;74.40;;;;;;2099798;28;20530;-96
2022/07/06 00:03:29;;;;;;;0.70;0.35;;;14.90;74.60;;;;;;2096911;28;20049;-94
2022/07/06 00:05:18;;;;;;;1.00;0.40;;;14.90;74.70;;;;;;2095959;28;20506;-94
2022/07/06 00:06:52;;;;;;;0.82;0.40;;;14.90;74.90;;;;;;2099570;28;20041;-94
2022/07/06 00:08:14;;;;;;;2.30;0.45;;;14.80;74.90;;;;;;2096261;28;20041;-93
2022/07/06 00:09:35;;;;;;;1.45;0.52;;;14.80;75.00;;;;;;2092505;28;20033;-94
2022/07/06 00:10:54;;;;;;;1.65;0.40;;;14.80;75.10;;;;;;2091488;28;20044;-95
2022/07/06 00:12:13;;;;;;;0.65;0.35;;;14.80;75.20;;;;;;2088343;28;20045;-94
2022/07/06 00:13:33;;;;;;;1.27;0.40;;;14.80;75.40;;;;;;2086878;28;20045;-94
2022/07/06 00:14:55;;;;;;;2.85;0.60;;;14.70;75.40;;;;;;2079859;28;20422;-94
2022/07/06 00:16:25;;;;;;;1.58;0.60;;;14.70;75.50;;;;;;2090739;28;20049;-95
2022/07/06 00:17:55;;;;;;;1.65;0.60;;;14.70;75.60;;;;;;2091541;28;20075;-96
2022/07/06 00:19:17;;;;;;;0.65;0.30;;;14.70;75.70;;;;;;2091412;28;20076;-96
2022/07/06 00:20:36;;;;;;;1.70;0.50;;;14.70;75.80;;;;;;2088333;28;20037;-95
2022/07/06 00:22:24;;;;;;;2.70;0.60;;;14.70;75.90;;;;;;2088344;28;20037;-96
2022/07/06 00:23:47;;;;;;;1.58;0.40;;;14.70;76.00;;;;;;2091432;28;20045;-95
2022/07/06 00:25:10;;;;;;;1.15;0.47;;;14.70;76.00;;;;;;2091472;28;20049;-96
2022/07/06 00:26:32;;;;;;;2.17;0.32;;;14.60;76.00;;;;;;2084642;28;20045;-95
2022/07/06 00:27:53;;;;;;;1.45;0.50;;;14.60;76.10;;;;;;2092093;28;20029;-95
2022/07/06 00:29:18;;;;;;;1.52;0.60;;;14.60;76.20;;;;;;2091393;28;20029;-96
2022/07/06 00:30:39;;;;;;;1.33;0.60;;;14.70;76.30;;;;;;2076396;28;20041;-95
2022/07/06 00:31:58;;;;;;;1.20;0.50;;;14.60;76.40;;;;;;2079969;28;20041;-96
2022/07/06 00:33:23;;;;;;;1.40;0.60;;;14.60;76.40;;;;;;2103068;28;20060;-95
2022/07/06 00:34:53;;;;;;;1.08;0.40;;;14.60;76.40;;;;;;2091428;28;20041;-96
2022/07/06 00:36:31;;;;;;;1.63;0.60;;;14.60;76.50;;;;;;2089491;28;20045;-95
2022/07/06 00:37:50;;;;;;;0.77;0.30;;;14.60;76.60;;;;;;2090789;28;20045;-96
2022/07/06 00:39:12;;;;;;;1.55;0.47;;;14.60;76.60;;;;;;2095629;28;20024;-94
2022/07/06 00:40:34;;;;;;;1.77;0.50;;;14.60;76.70;;;;;;2098178;28;20041;-94
2022/07/06 00:42:01;;;;;;;2.63;0.70;;;14.50;76.70;;;;;;2096881;28;20040;-95
2022/07/06 00:43:21;;;;;;;1.60;0.57;;;14.60;76.80;;;;;;2081746;28;20132;-95
2022/07/06 00:44:41;;;;;;;0.65;0.38;;;14.50;76.80;;;;;;2078990;28;20064;-94
2022/07/06 00:46:00;;;;;;;1.48;0.50;;;14.60;76.90;;;;;;2085374;28;20033;-96
2022/07/06 00:47:21;;;;;;;0.88;0.40;;;14.50;76.90;;;;;;2085990;28;20037;-94
2022/07/06 00:48:47;;;;;;;1.92;0.40;;;14.50;77.00;;;;;;2080793;28;20049;-95
2022/07/06 00:50:21;;;;;;;2.47;0.50;;;14.50;77.10;;;;;;2088448;28;20040;-95
2022/07/06 00:51:42;;;;;;;0.82;0.40;;;14.50;77.20;;;;;;2091815;28;20045;-96
2022/07/06 00:53:05;;;;;;;1.80;0.45;;;14.50;77.20;;;;;;2087386;28;20037;-96
2022/07/06 00:54:34;;;;;;;0.90;0.40;;;14.50;77.30;;;;;;2086384;28;20037;-95
2022/07/06 00:56:01;;;;;;;1.90;0.43;;;14.50;77.40;;;;;;2091568;28;20427;-95
2022/07/06 00:57:25;;;;;;;2.25;0.50;;;14.40;77.40;;;;;;2092247;28;20135;-95
2022/07/06 00:58:47;;;;;;;1.02;0.50;;;14.40;77.50;;;;;;2082124;28;20038;-96
2022/07/06 01:00:31;;;;;;;1.20;0.40;;;14.40;77.50;;;;;;2088561;28;20037;-96
2022/07/06 01:02:10;;;;;;;1.85;0.38;;;14.50;77.60;;;;;;2094829;28;20029;-94
2022/07/06 01:03:37;;;;;;;1.35;0.60;;;14.40;77.60;;;;;;2097133;28;20037;-93
2022/07/06 01:05:15;;;;;;;1.60;0.50;;;14.40;77.60;;;;;;2093166;28;20041;-94
2022/07/06 01:06:37;;;;;;;1.48;0.40;;;14.40;77.60;;;;;;2089614;28;20042;-94
2022/07/06 01:07:57;;;;;;;1.98;0.50;;;14.40;77.70;;;;;;2091752;28;20499;-96
2022/07/06 01:09:17;;;;;;;0.93;0.50;;;14.40;77.70;;;;;;2082408;28;20034;-96
2022/07/06 01:10:38;;;;;;;0.50;0.30;;;14.40;77.80;;;;;;2089546;28;20033;-95
2022/07/06 01:12:00;;;;;;;0.52;0.40;;;14.40;77.90;;;;;;2097938;28;20040;-95
2022/07/06 01:13:21;;;;;;;1.17;0.60;;;14.40;78.60;;;;;;2096923;28;20048;-94
2022/07/06 01:14:58;;;;;;;1.58;0.50;;;14.40;78.00;;;;;;2088052;28;20029;-95
2022/07/06 01:16:32;;;;;;;2.63;0.60;;;14.40;78.10;;;;;;2106987;28;20048;-95
2022/07/06 01:17:59;;;;;;;1.42;0.50;;;14.40;78.10;;;;;;2100034;28;20052;-96
2022/07/06 01:19:21;;;;;;;2.15;0.45;;;14.40;78.20;;;;;;2097795;28;20025;-94
2022/07/06 01:20:41;;;;;;;1.88;0.40;;;14.40;78.20;;;;;;2088908;28;20026;-96
2022/07/06 01:22:01;;;;;;;1.08;0.50;;;14.40;78.20;;;;;;2087274;28;20029;-93
2022/07/06 01:23:22;;;;;;;;;;;14.40;78.40;;;;;;2082138;28;20053;-95
2022/07/06 01:24:49;;;;;;;1.88;0.60;;;14.30;78.20;;;;;;2082442;28;19909;-95
2022/07/06 01:26:20;;;;;;;0.93;0.43;;;14.30;78.20;;;;;;2079535;28;20042;-96
2022/07/06 01:27:41;;;;;;;;;;;14.30;78.30;;;;;;2095713;28;20049;-96
2022/07/06 01:29:01;;;;;;;3.25;0.47;;;14.30;78.20;;;;;;2089197;28;19976;-96
2022/07/06 01:30:28;;;;;;;1.60;0.55;;;14.30;78.20;;;;;;2076893;28;20038;-95
2022/07/06 01:31:51;;;;;;;0.90;0.30;;;14.30;78.20;;;;;;2085676;28;20029;-96
2022/07/06 01:33:11;;;;;;;0.95;0.40;;;14.20;78.40;;;;;;2082145;28;20026;-95
2022/07/06 01:34:30;;;;;;;1.55;0.50;;;14.30;78.60;;;;;;2090904;28;20037;-96
2022/07/06 01:35:52;;;;;;;1.35;0.30;;;14.20;78.70;;;;;;2100590;28;20024;-93
2022/07/06 01:37:12;;;;;;;2.67;0.40;;;14.20;78.80;;;;;;2098814;28;20037;-96
2022/07/06 01:38:59;;;;;;;1.38;0.50;;;14.20;78.90;;;;;;2106281;28;20526;-95
2022/07/06 01:40:20;;;;;;;1.75;0.50;;;14.10;79.00;;;;;;2100309;28;20029;-91
2022/07/06 01:41:42;;;;;;;1.63;0.45;;;14.10;79.10;;;;;;2100975;28;20045;-96
2022/07/06 01:43:01;;;;;;;1.35;0.47;;;14.10;79.20;;;;;;2100216;28;20116;-96
2022/07/06 01:44:20;;;;;;;1.80;0.70;;;14.00;79.90;;;;;;2091379;28;22210;-95
2022/07/06 01:46:11;;;;;;;0.85;0.40;;;14.00;79.50;;;;;;2091394;28;20049;-95
2022/07/06 01:47:32;;;;;;;0.80;0.40;;;14.00;79.60;;;;;;2098654;28;20041;-96
2022/07/06 01:48:59;;;;;;;1.20;0.40;;;14.00;79.60;;;;;;2086369;28;20033;-96
2022/07/06 01:50:19;;;;;;;1.65;0.60;;;14.00;79.60;;;;;;2100383;28;20049;-95
2022/07/06 01:51:44;;;;;;;1.30;0.50;;;14.00;79.70;;;;;;2087679;28;20045;-96
2022/07/06 01:53:04;;;;;;;1.00;0.40;;;13.90;79.70;;;;;;2090318;28;20029;-96
2022/07/06 01:54:25;;;;;;;1.88;0.40;;;14.00;79.80;;;;;;2086230;28;20049;-95
2022/07/06 01:55:44;;;;;;;1.58;0.40;;;14.00;79.90;;;;;;2088683;28;20426;-93
2022/07/06 01:57:03;;;;;;;2.63;0.60;;;13.90;79.90;;;;;;2083578;28;20050;-95
2022/07/06 01:58:23;;;;;;;2.08;0.40;;;13.90;80.00;;;;;;2074797;28;20038;-95
2022/07/06 01:59:42;;;;;;;1.08;0.40;;;13.90;80.10;;;;;;2085211;28;20036;-94
2022/07/06 02:01:07;;;;;;;1.55;0.40;;;13.90;80.10;;;;;;2083585;28;20038;-95
2022/07/06 02:02:28;;;;;;;1.13;0.50;;;13.90;80.20;;;;;;2100361;28;20044;-96
2022/07/06 02:03:54;;;;;;;;;;;13.90;80.20;;;;;;2096363;28;20093;-96
2022/07/06 02:05:14;;;;;;;0.75;0.30;;;13.90;80.00;;;;;;2107798;28;19916;-95
2022/07/06 02:06:35;;;;;;;1.10;0.47;;;13.90;80.00;;;;;;2104765;28;20048;-96
2022/07/06 02:07:54;;;;;;;1.83;0.30;;;13.90;80.10;;;;;;2098384;28;20282;-96
2022/07/06 02:09:16;;;;;;;1.77;0.43;;;13.90;80.10;;;;;;2075629;28;20042;-95
2022/07/06 02:10:36;;;;;;;1.50;0.50;;;13.90;80.20;;;;;;2086443;28;20028;-95
2022/07/06 02:11:58;;;;;;;1.38;0.50;;;13.90;80.20;;;;;;2083258;28;20054;-96
2022/07/06 02:13:19;;;;;;;1.15;0.40;;;13.90;80.30;;;;;;2080566;28;20059;-95
2022/07/06 02:14:47;;;;;;;2.45;0.40;;;13.90;80.30;;;;;;2087322;28;20017;-95
2022/07/06 02:16:08;;;;;;;0.60;0.32;;;13.90;80.30;;;;;;2096013;28;20049;-95
2022/07/06 02:17:27;;;;;;;1.85;0.50;;;13.90;80.30;;;;;;2086866;28;20025;-96
2022/07/06 02:18:55;;;;;;;1.20;0.40;;;13.90;80.30;;;;;;2091435;28;20049;-95
2022/07/06 02:20:16;;;;;;;2.33;0.52;;;14.00;80.40;;;;;;2080345;28;20493;-96
2022/07/06 02:21:39;;;;;;;1.35;0.47;;;13.90;80.90;;;;;;2094377;28;20060;-95
2022/07/06 02:23:00;;;;;;;1.58;0.55;;;13.90;80.30;;;;;;2098681;28;20009;-96
2022/07/06 02:24:21;;;;;;;0.93;0.47;;;13.90;80.40;;;;;;2098435;28;20092;-95
2022/07/06 02:25:46;;;;;;;2.38;0.50;;;13.90;80.30;;;;;;2083069;28;20053;-96
2022/07/06 02:27:05;;;;;;;1.08;0.40;;;13.90;80.40;;;;;;2098887;28;20029;-96
2022/07/06 02:28:24;;;;;;;1.60;0.40;;;13.90;80.40;;;;;;2092529;28;20049;-95
2022/07/06 02:30:05;;;;;;;1.63;0.50;;;13.90;81.10;;;;;;2094400;28;20033;-95
2022/07/06 02:31:26;;;;;;;2.03;0.52;;;13.90;80.50;;;;;;2092317;28;20543;-96
2022/07/06 02:32:46;;;;;;;1.48;0.60;;;13.90;80.50;;;;;;2087963;28;20038;-95
2022/07/06 02:34:15;;;;;;;0.85;0.40;;;13.90;80.60;;;;;;2092151;28;20045;-95
2022/07/06 02:35:34;;;;;;;1.17;0.47;;;13.90;80.70;;;;;;2102527;28;20060;-95
2022/07/06 02:37:00;;;;;;;1.60;0.50;;;13.90;80.70;;;;;;2086326;28;20538;-96
2022/07/06 02:38:21;;;;;;;1.15;0.45;;;13.90;80.70;;;;;;2090749;28;20577;-96
2022/07/06 02:39:44;;;;;;;2.00;0.60;;;13.90;80.70;;;;;;2084247;28;20041;-96
2022/07/06 02:41:05;;;;;;;1.17;0.40;;;13.90;80.80;;;;;;2070704;28;20516;-96
2022/07/06 02:42:26;;;;;;;2.38;0.60;;;13.90;80.80;;;;;;2083430;28;20577;-96
2022/07/06 02:43:47;;;;;;;1.83;0.60;;;13.90;80.80;;;;;;2089602;28;20036;-96
2022/07/06 02:45:08;;;;;;;1.10;0.50;;;13.90;80.90;;;;;;2089255;28;20029;-96
2022/07/06 02:46:46;;;;;;;1.38;0.30;;;13.90;80.90;;;;;;2097984;28;20079;-96
2022/07/06 02:48:17;;;;;;;0.82;0.40;;;13.90;80.90;;;;;;2084250;28;20041;-96
2022/07/06 02:49:38;;;;;;;3.22;0.55;;;13.90;80.90;;;;;;2091888;28;20033;-96
2022/07/06 02:51:00;;;;;;;1.40;0.60;;;13.90;80.90;;;;;;2093582;28;20037;-96
2022/07/06 02:52:28;;;;;;;1.25;0.57;;;13.90;80.90;;;;;;2101060;28;20045;-96
2022/07/06 02:54:03;;;;;;;1.55;0.50;;;13.90;81.00;;;;;;2091279;28;20053;-96
2022/07/06 02:55:25;;;;;;;0.95;0.50;;;13.90;81.00;;;;;;2082180;28;20088;-96
2022/07/06 02:56:50;;;;;;;1.98;0.65;;;13.80;81.50;;;;;;2084581;28;20507;-96
2022/07/06 02:58:11;;;;;;;1.50;0.57;;;13.80;80.90;;;;;;2081582;28;20124;-96
2022/07/06 02:59:32;;;;;;;0.50;0.40;;;13.80;80.90;;;;;;2086614;28;20029;-96
2022/07/06 03:00:52;;;;;;;0.80;0.40;;;13.90;81.10;;;;;;2091479;28;20115;-95
2022/07/06 03:02:11;;;;;;;2.38;0.60;;;13.80;81.00;;;;;;2080444;28;20045;-96
2022/07/06 03:03:32;;;;;;;1.63;0.57;;;13.80;81.10;;;;;;2094034;28;20036;-96
2022/07/06 03:04:51;;;;;;;0.88;0.50;;;13.80;81.20;;;;;;2092218;28;20071;-96
2022/07/06 03:06:26;;;;;;;0.70;0.40;;;13.70;81.20;;;;;;2088600;28;20037;-95
2022/07/06 03:07:56;;;;;;;1.25;0.40;;;13.70;81.20;;;;;;2092355;28;20068;-96
2022/07/06 03:09:15;;;;;;;1.65;0.43;;;13.70;81.20;;;;;;2074744;28;20038;-96
2022/07/06 03:10:35;;;;;;;1.65;0.55;;;13.70;81.20;;;;;;2092455;28;20033;-95
2022/07/06 03:12:00;;;;;;;1.30;0.40;;;13.70;81.30;;;;;;2086567;28;20504;-96
2022/07/06 03:13:21;;;;;;;1.38;0.45;;;13.70;81.40;;;;;;2086781;28;20517;-96
2022/07/06 03:14:40;;;;;;;;;;;13.60;81.40;;;;;;2080986;28;20045;-96
2022/07/06 03:16:00;;;;;;;1.02;0.40;;;13.60;81.40;;;;;;2100561;28;19913;-95
2022/07/06 03:17:21;;;;;;;;;;;13.70;81.40;;;;;;2088444;28;20041;-96
2022/07/06 03:18:42;;;;;;;1.00;0.40;;;13.60;81.30;;;;;;2091020;28;19912;-94
2022/07/06 03:20:06;;;;;;;0.52;0.38;;;13.60;81.20;;;;;;2091874;28;20052;-96
2022/07/06 03:21:28;;;;;;;2.38;0.60;;;13.60;81.30;;;;;;2084233;28;20041;-95
2022/07/06 03:23:02;;;;;;;1.05;0.40;;;13.60;81.40;;;;;;2080944;28;20053;-95
2022/07/06 03:24:24;;;;;;;0.65;0.40;;;13.60;81.50;;;;;;2084308;28;20033;-96
2022/07/06 03:25:48;;;;;;;1.05;0.40;;;13.60;81.50;;;;;;2076266;28;20046;-95
2022/07/06 03:27:27;;;;;;;1.15;0.40;;;13.60;81.50;;;;;;2087934;28;20049;-96
2022/07/06 03:29:07;;;;;;;1.38;0.45;;;13.60;81.60;;;;;;2079251;28;20053;-95
2022/07/06 03:30:29;;;;;;;1.08;0.40;;;13.70;81.60;;;;;;2099754;28;20028;-95
2022/07/06 03:31:51;;;;;;;1.45;0.40;;;13.60;81.50;;;;;;2092342;28;20060;-95
2022/07/06 03:33:10;;;;;;;0.68;0.40;;;13.70;81.60;;;;;;2086176;28;20041;-96
2022/07/06 03:34:30;;;;;;;1.60;0.55;;;13.70;81.70;;;;;;2094213;28;20067;-96
2022/07/06 03:35:51;;;;;;;0.95;0.30;;;13.70;81.70;;;;;;2085568;28;20431;-96
2022/07/06 03:37:24;;;;;;;1.88;0.47;;;13.70;81.70;;;;;;2086302;28;20033;-96
2022/07/06 03:38:51;;;;;;;2.15;0.50;;;13.80;81.80;;;;;;2091694;28;20048;-95
2022/07/06 03:40:14;;;;;;;1.13;0.50;;;13.80;81.70;;;;;;2081368;28;20065;-95
2022/07/06 03:41:34;;;;;;;1.02;0.40;;;13.80;81.70;;;;;;2073432;28;20042;-96
2022/07/06 03:42:53;;;;;;;0.70;0.35;;;13.80;81.80;;;;;;2085667;28;20490;-96
2022/07/06 03:44:16;;;;;;;1.27;0.50;;;13.80;81.70;;;;;;2088181;28;20056;-96
2022/07/06 03:45:39;;;;;;;1.20;0.50;;;13.80;81.70;;;;;;2091686;28;20033;-93
2022/07/06 03:47:09;;;;;;;0.95;0.40;;;13.90;81.80;;;;;;2091590;28;20037;-95
2022/07/06 03:48:28;;;;;;;0.82;0.40;;;13.90;81.80;;;;;;2090601;28;20052;-95
2022/07/06 03:49:47;;;;;;;1.83;0.47;;;13.90;81.80;;;;;;2085878;28;20406;-95
2022/07/06 03:51:11;;;;;;;1.33;0.40;;;13.90;81.80;;;;;;2089012;28;20041;-95
2022/07/06 03:52:51;;;;;;;1.83;0.60;;;13.90;81.90;;;;;;2091549;28;20041;-96
2022/07/06 03:54:14;;;;;;;1.38;0.52;;;13.90;81.80;;;;;;2084097;28;20097;-95
2022/07/06 03:55:33;;;;;;;0.63;0.40;;;14.00;81.90;;;;;;2072429;28;20073;-96
2022/07/06 03:56:55;;;;;;;1.30;0.60;;;14.00;81.90;;;;;;2089178;28;20116;-95
2022/07/06 03:58:34;;;;;;;1.98;0.50;;;14.00;81.90;;;;;;2095100;28;20284;-95
2022/07/06 04:00:09;;;;;;;1.65;0.40;;;14.10;81.90;;;;;;2092464;28;20064;-95
2022/07/06 04:01:29;;;;;;;1.13;0.50;;;14.10;81.90;;;;;;2092795;28;20435;-96
2022/07/06 04:02:49;;;;;;;1.30;0.50;;;14.10;81.90;;;;;;2092968;28;20052;-95
2022/07/06 04:04:08;;;;;;;1.38;0.35;;;14.10;81.90;;;;;;2085491;28;20093;-95
2022/07/06 04:05:39;;;;;;;1.75;0.50;;;14.10;81.90;;;;;;2098444;28;20032;-95
2022/07/06 04:06:58;;;;;;;2.25;0.47;;;14.20;82.00;;;;;;2093812;28;20049;-95
2022/07/06 04:08:18;;;;;;;2.08;0.45;;;14.20;81.90;;;;;;2092597;28;20521;-94
2022/07/06 04:09:37;;;;;;;0.80;0.40;;;14.20;82.00;;;;;;2107271;28;20043;-94
2022/07/06 04:10:56;;;;;;;1.67;0.55;;;14.10;82.00;;;;;;2105626;28;20468;-96
2022/07/06 04:12:51;;;;;;;0.90;0.43;;;14.20;82.10;;;;;;2096402;28;20045;-95
2022/07/06 04:14:15;;;;;;;1.02;0.40;;;14.20;82.10;;;;;;2100222;28;20068;-96
2022/07/06 04:15:36;;;;;;;1.02;0.50;;;14.20;82.10;;;;;;2099293;28;20040;-93
2022/07/06 04:16:58;;;;;;;0.63;0.40;;;14.20;82.10;;;;;;2080655;28;20041;-96
2022/07/06 04:18:24;;;;;;;2.45;0.57;;;14.20;82.20;;;;;;2087012;28;20045;-96
2022/07/06 04:19:44;;;;;;;0.90;0.30;;;14.20;82.20;;;;;;2089469;28;20048;-96
2022/07/06 04:21:08;;;;;;;0.82;0.40;;;14.20;82.30;;;;;;2096626;28;20037;-96
2022/07/06 04:22:28;;;;;;;1.15;0.50;;;14.20;82.30;;;;;;2094657;28;20036;-96
2022/07/06 04:23:48;;;;;;;2.05;0.40;;;14.20;82.40;;;;;;2097316;28;20088;-95
2022/07/06 04:25:13;;;;;;;1.98;0.47;;;14.20;82.40;;;;;;2095032;28;20068;-96
2022/07/06 04:26:44;;;;;;;1.35;0.47;;;14.20;82.50;;;;;;2103072;28;20032;-96
2022/07/06 04:28:21;;;;;;;1.45;0.30;;;14.10;82.50;;;;;;2098768;28;20037;-95
2022/07/06 04:29:40;;;;;;;1.63;0.40;;;14.10;82.50;;;;;;2098879;28;20040;-96
2022/07/06 04:31:07;;;;;;;1.27;0.52;;;14.10;82.50;;;;;;2071467;28;20030;-95
2022/07/06 04:32:36;;;;;;;1.67;0.60;;;14.10;82.60;;;;;;2092883;28;20056;-96
2022/07/06 04:33:56;;;;;;;1.38;0.40;;;14.20;82.70;;;;;;2083388;28;20050;-96
2022/07/06 04:35:17;;;;;;;1.23;0.40;;;14.10;82.60;;;;;;2107354;28;20039;-96
2022/07/06 04:36:36;;;;;;;0.88;0.30;;;14.10;82.60;;;;;;2096832;28;20041;-95
2022/07/06 04:37:55;;;;;;;2.17;0.57;;;14.10;82.70;;;;;;2089423;28;20037;-96
2022/07/06 04:39:16;;;;;;;1.55;0.50;;;14.10;82.70;;;;;;2100232;28;20104;-94
2022/07/06 04:40:38;;;;;;;1.42;0.40;;;14.10;82.70;;;;;;2096176;28;20055;-94
2022/07/06 04:42:04;;;;;;;1.05;0.40;;;14.10;82.70;;;;;;2090768;28;20100;-95
2022/07/06 04:43:25;;;;;;;1.55;0.50;;;14.10;82.70;;;;;;2088026;28;20046;-94
2022/07/06 04:44:51;;;;;;;2.17;0.50;;;14.10;82.70;;;;;;2093663;28;20029;-94
2022/07/06 04:46:13;;;;;;;0.75;0.40;;;14.10;82.70;;;;;;2097558;28;20060;-94
2022/07/06 04:47:37;;;;;;;1.15;0.40;;;14.10;82.70;;;;;;2099164;28;20036;-94
2022/07/06 04:48:58;;;;;;;0.80;0.32;;;14.20;82.80;;;;;;2075578;28;20085;-94
2022/07/06 04:50:17;;;;;;;1.30;0.45;;;14.10;82.70;;;;;;2085874;28;20049;-95
2022/07/06 04:51:39;;;;;;;0.70;0.30;;;14.10;82.70;;;;;;2082490;28;20492;-93
2022/07/06 04:53:08;;;;;;;1.48;0.57;;;14.20;82.80;;;;;;2085068;28;20044;-94
2022/07/06 04:54:27;;;;;;;2.05;0.30;;;14.20;82.80;;;;;;2089113;28;20057;-94
2022/07/06 04:55:46;;;;;;;1.25;0.35;;;14.30;82.70;;;;;;2071161;28;20045;-94
2022/07/06 04:57:07;;;;;;;1.00;0.50;;;14.30;82.60;;;;;;2070767;28;20033;-95
2022/07/06 04:58:27;;;;;;;1.85;0.63;;;14.40;82.60;;;;;;2084134;28;20073;-94
2022/07/06 04:59:47;;;;;;;;;;;14.40;82.50;;;;;;2087790;28;20041;-94
2022/07/06 05:01:06;;;;;;;1.20;0.47;;;14.50;82.30;;;;;;2087512;28;19905;-95
2022/07/06 05:02:40;;;;;;;1.45;0.40;;;14.50;82.20;;;;;;2082273;28;20140;-95
2022/07/06 05:04:14;;;;;;;1.00;0.40;;;14.60;82.00;;;;;;2095139;28;20062;-94
2022/07/06 05:05:34;;;;;;;0.52;0.30;;;14.70;81.80;;;;;;2082344;28;20045;-95
2022/07/06 05:06:57;;;;;;;0.90;0.47;;;14.80;81.80;;;;;;2077197;28;20037;-94
2022/07/06 05:08:17;;;;;;;1.25;0.32;;;14.90;81.70;;;;;;2070629;28;20041;-94
2022/07/06 05:09:37;;;;;;;1.75;0.50;;;15.00;81.50;;;;;;2076099;28;20458;-94
2022/07/06 05:11:04;;;;;;;1.73;0.40;;;15.10;81.40;;;;;;2077195;28;20124;-94
2022/07/06 05:12:23;;;;;;;0.57;0.32;;;15.20;81.20;;;;;;2085530;28;20132;-94
2022/07/06 05:13:50;;;;;;;0.70;0.35;;;15.30;81.00;;;;;;2088330;28;20052;-94
2022/07/06 05:15:30;;;;;;;0.93;0.40;;;15.40;80.80;;;;;;2091670;28;20041;-94
2022/07/06 05:16:55;;;;;;;1.20;0.30;;;15.50;80.60;;;;;;2090943;28;20151;-95
2022/07/06 05:18:15;;;;;;;1.42;0.50;;;15.50;80.50;;;;;;2085261;28;20527;-95
2022/07/06 05:19:35;;;;;;;1.48;0.43;;;15.50;80.50;;;;;;2094612;28;20036;-94
2022/07/06 05:20:54;;;;;;;1.23;0.40;;;15.50;80.50;;;;;;2078512;28;20065;-93
2022/07/06 05:22:14;;;;;;;1.20;0.40;;;15.60;80.60;;;;;;2079487;28;20041;-93
2022/07/06 05:23:33;;;;;;;1.98;0.40;;;15.50;80.50;;;;;;2075370;28;20045;-93
2022/07/06 05:24:53;;;;;;;1.25;0.30;;;15.60;80.60;;;;;;2080635;28;20050;-93
2022/07/06 05:26:12;;;;;;;2.13;0.47;;;15.50;80.60;;;;;;2085302;28;20041;-92
2022/07/06 05:27:31;;;;;;;1.05;0.35;;;15.50;80.60;;;;;;2086060;28;20085;-93
2022/07/06 05:28:51;;;;;;;1.10;0.32;;;15.50;80.80;;;;;;2076454;28;20108;-93
2022/07/06 05:30:10;;;;;;;1.02;0.35;;;15.50;80.90;;;;;;2080509;28;20041;-92
2022/07/06 05:31:36;;;;;;;1.73;0.30;;;15.50;80.90;;;;;;2074148;28;20046;-96
2022/07/06 05:33:00;;;;;;;1.73;0.40;;;15.50;80.90;;;;;;2083467;28;20048;-95
2022/07/06 05:34:21;;;;;;;0.93;0.30;;;15.50;80.90;;;;;;2078401;28;20096;-96
2022/07/06 05:35:41;;;;;;;2.38;0.40;;;15.60;80.90;;;;;;2076168;28;20038;-96
2022/07/06 05:37:01;;;;;;;0.75;0.30;;;15.50;80.90;;;;;;2079828;28;20049;-94
2022/07/06 05:39:20;;;;;;;7.20;0.70;;;15.60;80.90;;;;;;2089877;28;20049;-96
2022/07/06 05:41:05;;;;;;;3.78;0.60;;;15.70;80.70;;;;;;2094671;28;20045;-96
2022/07/06 05:42:54;;;;;;;1.40;0.30;;;15.80;80.50;;;;;;2082991;28;20050;-96
2022/07/06 05:44:41;;;;;;;0.80;0.30;;;15.80;80.30;;;;;;2091111;28;20081;-96
2022/07/06 05:46:30;;;;;;;2.22;0.40;;;15.90;80.30;;;;;;2100785;28;20037;-96
2022/07/06 05:51:53;;;;;;;1.10;0.35;;;16.00;80.00;;;;;;2093463;28;20586;-96
2022/07/06 05:53:43;;;;;;;1.52;0.40;;;16.00;79.80;;;;;;2085484;28;20030;-96
2022/07/06 05:55:06;;;;;;;0.82;0.30;;;16.00;79.80;;;;;;2091005;28;20044;-96
2022/07/06 05:56:31;;;;;;;1.67;0.40;;;16.00;79.80;;;;;;2076563;28;20030;-96
2022/07/06 05:58:39;;;;;;;0.93;0.47;;;16.10;79.80;;;;;;2094103;28;20410;-96
2022/07/06 06:00:24;;;;;;;0.88;0.30;;;16.10;79.70;;;;;;2094692;28;20040;-96
2022/07/06 06:02:05;;;;;;;0.68;0.30;;;16.10;79.50;;;;;;2078622;28;20034;-96
2022/07/06 06:03:25;;;;;;;0.80;0.30;;;16.20;79.50;;;;;;2093292;28;20034;-92
2022/07/06 06:04:44;;;;;;;1.55;0.35;;;16.20;79.40;;;;;;2096036;28;20036;-96
2022/07/06 06:06:03;;;;;;;1.52;0.50;;;16.30;79.30;;;;;;2088980;28;20046;-94
2022/07/06 06:07:22;;;;;;;1.13;0.30;;;16.40;79.20;;;;;;2079702;28;20033;-96
2022/07/06 06:08:41;;;;;;;1.65;0.30;;;16.50;79.00;;;;;;2082056;28;20025;-96
2022/07/06 06:10:02;;;;;;;0.90;0.30;;;16.60;78.70;;;;;;2076529;28;20120;-94
2022/07/06 06:11:21;;;;;;;1.38;0.20;;;16.70;78.40;;;;;;2096010;28;20036;-95
2022/07/06 06:12:41;;;;;;;2.05;0.43;;;16.80;78.10;;;;;;2091619;28;20032;-95
2022/07/06 06:14:01;;;;;;;0.68;0.40;;;17.00;77.80;;;;;;2094518;28;20053;-96
2022/07/06 06:15:20;;;;;;;0.30;0.30;;;17.10;77.60;;;;;;2090926;28;20033;-95
2022/07/06 06:16:47;;;;;;;1.10;0.30;;;17.20;77.20;;;;;;2102745;28;20036;-96
2022/07/06 06:18:18;;;;;;;0.70;0.30;;;17.30;77.00;;;;;;2099567;28;20037;-95
2022/07/06 06:19:38;;;;;;;1.95;0.40;;;17.30;76.80;;;;;;2102240;28;20120;-95
2022/07/06 06:21:03;;;;;;;1.05;0.30;;;17.30;76.70;;;;;;2103994;28;20040;-96
2022/07/06 06:22:23;;;;;;;0.75;0.20;;;17.30;76.80;;;;;;2105762;28;20037;-96
2022/07/06 06:23:46;;;;;;;;;;;17.30;76.90;;;;;;2105144;28;20510;-96
2022/07/06 06:25:19;;;;;;;0.85;0.30;;;17.30;76.90;;;;;;2104821;28;19909;-96
2022/07/06 06:26:46;;;;;;;3.38;0.40;;;17.30;76.90;;;;;;2098405;28;20033;-96
2022/07/06 06:28:20;;;;;;;1.73;0.30;;;17.40;76.70;;;;;;2101914;28;20025;-96
2022/07/06 06:30:16;;;;;;;2.00;0.30;;;17.50;76.50;;;;;;2101252;28;20057;-96
2022/07/06 06:31:38;;;;;;;0.68;0.35;;;17.60;76.30;;;;;;2107458;28;20522;-96
2022/07/06 06:33:18;;;;;;;1.35;0.32;;;17.70;76.20;;;;;;2089454;28;20022;-93
2022/07/06 06:34:39;;;;;;;0.82;0.30;;;17.90;75.90;;;;;;2103004;28;20124;-96
2022/07/06 06:36:10;;;;;;;0.68;0.22;;;18.00;75.70;;;;;;2096832;28;20049;-96
2022/07/06 06:37:31;;;;;;;2.22;0.40;;;18.10;75.50;;;;;;2090396;28;20021;-96
2022/07/06 06:38:50;;;;;;;0.85;0.38;;;18.10;75.30;;;;;;2085402;28;20037;-96
2022/07/06 06:40:11;;;;;;;;;;;18.30;75.10;;;;;;2100134;28;20040;-96
2022/07/06 06:41:30;;;;;;;1.15;0.43;;;18.30;74.90;;;;;;2098926;28;19913;-96
2022/07/06 06:42:49;;;;;;;1.63;0.40;;;18.30;74.90;;;;;;2102151;28;20486;-96
2022/07/06 06:44:09;;;;;;;1.33;0.30;;;18.40;74.90;;;;;;2094770;28;20033;-96
2022/07/06 06:45:28;;;;;;;2.58;0.38;;;18.40;74.70;;;;;;2090064;28;20044;-96
2022/07/06 06:46:52;;;;;;;0.90;0.20;;;18.40;74.70;;;;;;2084036;28;20142;-96
2022/07/06 06:48:12;;;;;;;0.57;0.20;;;18.40;74.70;;;;;;2090804;28;20041;-96
2022/07/06 06:49:32;;;;;;;2.28;0.20;;;18.40;74.70;;;;;;2082868;28;20033;-96
2022/07/06 06:51:13;;;;;;;1.45;0.38;;;18.50;74.60;;;;;;2082526;28;20057;-96
2022/07/06 06:53:14;;;;;;;2.25;0.40;;;18.50;74.50;;;;;;2087920;28;20029;-96
2022/07/06 06:54:52;;;;;;;0.82;0.20;;;18.60;74.30;;;;;;2111771;28;20044;-96
2022/07/06 06:57:18;;;;;;;1.77;0.30;;;18.60;74.20;;;;;;2099921;28;20041;-96
2022/07/06 06:58:58;;;;;;;2.00;0.38;;;18.60;74.00;;;;;;2107377;28;20036;-96
2022/07/06 07:00:20;;;;;;;1.13;0.25;;;18.60;73.80;;;;;;2100712;28;20048;-96
2022/07/06 07:02:29;;;;;;;1.27;0.25;;;18.60;73.90;;;;;;2094263;28;20128;-96
2022/07/06 07:04:39;;;;;;;1.95;0.40;;;18.50;73.70;;;;;;2073265;28;20452;-96
2022/07/06 07:07:06;;;;;;;0.93;0.20;;;18.50;74.00;;;;;;2113592;28;20040;-96
2022/07/06 07:12:58;;;;;;;1.27;0.22;;;18.60;73.80;;;;;;2116438;28;20100;-96
2022/07/06 07:14:52;;;;;;;1.25;0.30;;;18.70;73.50;;;;;;2114484;28;20048;-95
2022/07/06 07:17:11;;;;;;;1.20;0.20;;;18.80;73.30;;;;;;2107408;28;20071;-96
2022/07/06 07:18:39;;;;;;;0.30;0.20;;;18.90;73.00;;;;;;2102592;28;20040;-96
2022/07/06 07:19:59;;;;;;;2.38;0.30;;;19.10;72.80;;;;;;2091721;28;20053;-96
2022/07/06 07:21:24;;;;;;;0.65;0.20;;;19.20;72.50;;;;;;2080968;28;20069;-96
2022/07/06 07:22:45;;;;;;;1.38;0.22;;;19.20;72.20;;;;;;2077259;28;20050;-95
2022/07/06 07:24:04;;;;;;;0.25;0.20;;;19.40;72.10;;;;;;2073683;28;20046;-96
2022/07/06 07:25:24;;;;;;;0.40;0.20;;;19.40;71.90;;;;;;2077881;28;20054;-95
2022/07/06 07:26:43;;;;;;;1.40;0.20;;;19.50;71.70;;;;;;2080773;28;20033;-96
2022/07/06 07:28:04;;;;;;;0.93;0.10;;;19.50;71.50;;;;;;2075255;28;20042;-96
2022/07/06 07:29:46;;;;;;;1.83;0.30;;;19.60;71.30;;;;;;2089956;28;20033;-96
2022/07/06 07:31:08;;;;;;;1.35;0.40;;;19.60;71.00;;;;;;2092493;28;20028;-96
2022/07/06 07:32:27;;;;;;;1.23;0.20;;;19.50;71.10;;;;;;2094950;28;20037;-96
2022/07/06 07:33:48;;;;;;;2.22;0.30;;;19.60;71.10;;;;;;2069867;28;20046;-96
2022/07/06 07:35:18;;;;;;;0.90;0.20;;;19.60;71.00;;;;;;2079060;28;20034;-96
2022/07/06 07:36:37;;;;;;;1.85;0.28;;;19.70;70.80;;;;;;2095010;28;20049;-96